createdAt,value
2023-04-26T00:00:12.059Z,10.30
2023-04-26T00:05:14.651Z,10.66
2023-04-26T00:10:16.460Z,10.32
2023-04-26T00:15:18.167Z,10.63
2023-04-26T00:20:19.861Z,10.60
2023-04-26T00:25:21.542Z,10.48
2023-04-26T00:30:23.176Z,10.49
2023-04-26T00:35:24.966Z,10.67
2023-04-26T00:40:26.930Z,10.62
2023-04-26T00:45:28.592Z,10.72
2023-04-26T00:50:31.532Z,10.69
2023-04-26T00:55:33.290Z,10.44
2023-04-26T01:00:34.975Z,10.44
2023-04-26T01:05:37.659Z,10.39
2023-04-26T01:10:40.398Z,10.38
2023-04-26T01:15:48.701Z,10.23
2023-04-26T01:20:52.156Z,10.30
2023-04-26T01:25:56.260Z,10.00
2023-04-26T01:30:57.858Z,10.04
2023-04-26T01:35:59.494Z,9.68
2023-04-26T01:41:01.062Z,9.50
2023-04-26T01:46:02.700Z,9.55
2023-04-26T01:51:04.702Z,9.44
2023-04-26T01:56:06.751Z,9.84
2023-04-26T02:01:09.458Z,9.72
2023-04-26T02:06:11.119Z,9.82
2023-04-26T02:11:12.809Z,9.30
2023-04-26T02:16:16.632Z,9.62
2023-04-26T02:21:18.712Z,9.94
2023-04-26T02:26:20.326Z,9.97
2023-04-26T02:31:23.316Z,10.01
2023-04-26T02:36:25.171Z,9.42
2023-04-26T02:41:26.818Z,9.30
2023-04-26T02:46:28.531Z,8.95
2023-04-26T02:51:30.134Z,9.56
2023-04-26T02:56:31.817Z,9.46
2023-04-26T03:01:33.438Z,9.63
2023-04-26T03:06:35.851Z,9.67
2023-04-26T03:11:37.446Z,9.69
2023-04-26T03:16:43.599Z,9.22
2023-04-26T03:21:45.212Z,9.21
2023-04-26T03:26:46.877Z,9.16
2023-04-26T03:31:48.577Z,9.21
2023-04-26T03:36:50.151Z,9.26
2023-04-26T03:41:52.349Z,9.12
2023-04-26T03:46:53.987Z,8.93
2023-04-26T03:51:55.566Z,8.88
2023-04-26T03:56:57.147Z,9.01
2023-04-26T04:01:58.802Z,9.00
2023-04-26T04:07:00.909Z,8.99
2023-04-26T04:12:03.112Z,9.15
2023-04-26T04:17:04.770Z,9.08
2023-04-26T04:22:07.098Z,8.91
2023-04-26T04:27:09.018Z,9.17
2023-04-26T04:32:11.530Z,9.25
2023-04-26T04:37:14.503Z,9.28
2023-04-26T04:42:16.126Z,9.15
2023-04-26T04:47:17.925Z,9.44
2023-04-26T04:52:21.910Z,9.18
2023-04-26T04:57:23.533Z,9.18
2023-04-26T05:02:25.853Z,9.29
2023-04-26T05:07:29.114Z,9.34
2023-04-26T05:12:30.911Z,9.08
2023-04-26T05:17:33.503Z,9.07
2023-04-26T05:22:36.894Z,8.90
2023-04-26T05:27:38.588Z,9.07
2023-04-26T05:32:41.683Z,9.39
2023-04-26T05:37:43.290Z,9.18
2023-04-26T05:42:44.863Z,9.42
2023-04-26T05:47:47.765Z,9.23
2023-04-26T05:52:49.714Z,9.17
2023-04-26T05:57:51.487Z,9.16
2023-04-26T06:02:53.272Z,9.45
2023-04-26T06:08:01.734Z,9.13
2023-04-26T06:13:04.375Z,9.24
2023-04-26T06:18:06.869Z,9.81
2023-04-26T06:23:08.561Z,9.64
2023-04-26T06:28:10.607Z,9.55
2023-04-26T06:33:12.234Z,9.53
2023-04-26T06:38:13.908Z,9.48
2023-04-26T06:43:15.539Z,9.39
2023-04-26T06:48:17.176Z,9.31
2023-04-26T06:53:22.898Z,9.40
2023-04-26T06:58:24.826Z,9.52
2023-04-26T07:03:27.166Z,9.66
2023-04-26T07:08:28.906Z,9.48
2023-04-26T07:13:31.719Z,9.83
2023-04-26T07:18:33.360Z,9.80
2023-04-26T07:23:35.504Z,10.13
2023-04-26T07:28:37.944Z,10.18
2023-04-26T07:33:39.625Z,10.19
2023-04-26T07:38:41.470Z,10.42
2023-04-26T07:43:43.359Z,10.36
2023-04-26T07:48:44.961Z,10.50
2023-04-26T07:53:49.615Z,10.59
2023-04-26T07:58:51.794Z,10.40
2023-04-26T08:03:53.781Z,10.78
2023-04-26T08:08:55.639Z,10.68
2023-04-26T08:13:57.280Z,10.87
2023-04-26T08:19:02.930Z,11.14
2023-04-26T08:24:04.913Z,11.13
2023-04-26T08:29:06.656Z,11.33
2023-04-26T08:34:13.500Z,11.24
2023-04-26T08:39:15.078Z,11.16
2023-04-26T08:44:18.324Z,11.75
2023-04-26T08:49:32.332Z,11.43
2023-04-26T08:54:35.973Z,11.36
2023-04-26T08:59:38.434Z,11.22
2023-04-26T09:04:41.445Z,11.42
2023-04-26T09:09:47.685Z,11.47
2023-04-26T09:14:49.545Z,11.68
2023-04-26T09:19:51.259Z,11.66
2023-04-26T09:24:52.898Z,11.60
2023-04-26T09:30:05.708Z,11.75
2023-04-26T09:35:09.189Z,12.55
2023-04-26T09:40:19.762Z,12.40
2023-04-26T09:45:21.378Z,12.19
2023-04-26T09:50:30.520Z,12.17
2023-04-26T09:55:35.420Z,12.34
2023-04-26T10:00:39.413Z,11.97
2023-04-26T10:05:41.192Z,12.38
2023-04-26T10:10:44.010Z,12.82
2023-04-26T10:15:47.544Z,12.84
2023-04-26T10:20:53.834Z,12.98
2023-04-26T10:25:56.494Z,13.28
2023-04-26T10:30:59.952Z,13.02
2023-04-26T10:36:10.230Z,12.64
2023-04-26T10:41:37.141Z,12.49
2023-04-26T10:46:40.798Z,12.55
2023-04-26T10:52:08.897Z,12.53
2023-04-26T10:57:10.925Z,12.57
2023-04-26T11:02:13.645Z,12.45
2023-04-26T11:07:16.271Z,12.36
2023-04-26T11:12:18.015Z,12.80
2023-04-26T11:17:20.883Z,12.53
2023-04-26T11:22:23.682Z,12.73
2023-04-26T11:27:27.930Z,13.17
2023-04-26T11:32:29.572Z,13.26
2023-04-26T11:37:31.250Z,12.75
2023-04-26T11:42:32.871Z,12.74
2023-04-26T11:47:35.909Z,13.08
2023-04-26T11:52:38.784Z,13.03
2023-04-26T11:57:40.613Z,13.89
2023-04-26T12:02:48.743Z,13.79
2023-04-26T12:07:55.720Z,13.74
2023-04-26T12:12:59.800Z,13.64
2023-04-26T12:18:10.397Z,13.96
2023-04-26T12:23:15.430Z,13.69
2023-04-26T12:28:17.151Z,13.77
2023-04-26T12:33:22.910Z,14.41
2023-04-26T12:38:24.827Z,14.50
2023-04-26T12:43:26.739Z,14.53
2023-04-26T12:48:29.877Z,14.14
2023-04-26T12:53:34.876Z,14.02
2023-04-26T12:58:36.795Z,13.76
2023-04-26T13:03:42.227Z,13.80
2023-04-26T13:08:43.958Z,13.83
2023-04-26T13:13:45.684Z,14.36
2023-04-26T13:18:47.345Z,14.22
2023-04-26T13:23:49.015Z,13.90
2023-04-26T13:28:51.502Z,13.86
2023-04-26T13:33:53.204Z,13.65
2023-04-26T13:38:54.901Z,13.86
2023-04-26T13:43:57.135Z,13.75
2023-04-26T13:48:58.839Z,13.56
2023-04-26T13:54:00.701Z,13.71
2023-04-26T13:59:03.668Z,13.68
2023-04-26T14:04:05.778Z,13.61
2023-04-26T14:09:08.890Z,13.55
2023-04-26T14:14:11.331Z,13.69
2023-04-26T14:19:15.427Z,13.84
2023-04-26T14:24:17.062Z,14.12
2023-04-26T14:29:18.693Z,14.01
2023-04-26T14:34:22.128Z,14.23
2023-04-26T14:39:24.816Z,13.95
2023-04-26T14:44:27.275Z,13.89
2023-04-26T14:49:28.954Z,14.07
2023-04-26T14:54:30.566Z,14.09
2023-04-26T14:59:32.221Z,14.02
2023-04-26T15:04:34.005Z,14.08
2023-04-26T15:09:36.254Z,14.70
2023-04-26T15:14:37.836Z,14.41
2023-04-26T15:19:39.418Z,14.18
2023-04-26T15:24:41.272Z,14.37
2023-04-26T15:29:42.953Z,14.80
2023-04-26T15:34:45.200Z,14.58
2023-04-26T15:39:47.498Z,14.29
2023-04-26T15:44:50.055Z,13.98
2023-04-26T15:49:51.796Z,14.05
2023-04-26T15:54:53.412Z,14.26
2023-04-26T15:59:55.058Z,14.60
2023-04-26T16:04:56.851Z,14.17
2023-04-26T16:09:58.721Z,13.80
2023-04-26T16:15:00.392Z,13.82
2023-04-26T16:20:02.638Z,13.77
2023-04-26T16:25:06.896Z,13.66
2023-04-26T16:30:09.827Z,13.87
2023-04-26T16:35:11.614Z,13.97
2023-04-26T16:40:13.676Z,14.12
2023-04-26T16:45:16.498Z,14.40
2023-04-26T16:50:18.312Z,13.96
2023-04-26T16:55:19.914Z,13.83
2023-04-26T17:00:21.578Z,13.59
2023-04-26T17:05:23.152Z,13.52
2023-04-26T17:10:26.826Z,13.48
2023-04-26T17:15:28.993Z,13.45
2023-04-26T17:20:32.369Z,13.22
2023-04-26T17:25:35.318Z,13.17
2023-04-26T17:30:37.855Z,13.21
2023-04-26T17:35:43.037Z,13.08
2023-04-26T17:40:44.734Z,13.10
2023-04-26T17:45:46.593Z,13.06
2023-04-26T17:50:48.257Z,12.93
2023-04-26T17:55:51.945Z,12.99
2023-04-26T18:00:53.979Z,12.86
2023-04-26T18:05:55.799Z,12.58
2023-04-26T18:10:59.766Z,12.74
2023-04-26T18:16:03.410Z,12.67
2023-04-26T18:21:06.245Z,12.62
2023-04-26T18:26:08.644Z,12.52
2023-04-26T18:31:12.186Z,12.39
2023-04-26T18:36:14.992Z,12.34
2023-04-26T18:41:17.964Z,12.20
2023-04-26T18:46:21.033Z,12.27
2023-04-26T18:51:23.602Z,12.14
2023-04-26T18:56:27.607Z,12.10
2023-04-26T19:01:30.714Z,12.05
2023-04-26T19:06:33.623Z,12.15
2023-04-26T19:11:35.747Z,12.13
2023-04-26T19:16:39.924Z,11.96
2023-04-26T19:21:43.013Z,11.83
2023-04-26T19:26:45.980Z,12.30
2023-04-26T19:31:48.103Z,11.71
2023-04-26T19:36:50.269Z,11.66
2023-04-26T19:41:52.433Z,11.55
2023-04-26T19:46:54.717Z,11.58
2023-04-26T19:51:58.763Z,11.65
2023-04-26T19:57:03.690Z,11.58
2023-04-26T20:02:07.221Z,11.37
2023-04-26T20:07:09.348Z,11.19
2023-04-26T20:12:12.203Z,11.21
2023-04-26T20:17:14.578Z,11.45
2023-04-26T20:22:16.972Z,11.36
2023-04-26T20:27:19.278Z,11.25
2023-04-26T20:32:21.435Z,11.32
2023-04-26T20:37:23.471Z,11.27
2023-04-26T20:42:25.394Z,11.21
2023-04-26T20:47:27.034Z,11.07
2023-04-26T20:52:28.781Z,11.15
2023-04-26T20:57:30.811Z,11.11
2023-04-26T21:02:32.768Z,11.00
2023-04-26T21:07:34.413Z,10.89
2023-04-26T21:12:36.264Z,10.95
2023-04-26T21:17:37.952Z,10.94
2023-04-26T21:22:39.589Z,10.99
2023-04-26T21:27:41.353Z,10.85
2023-04-26T21:32:43.061Z,10.85
2023-04-26T21:37:44.711Z,10.81
2023-04-26T21:42:57.757Z,10.76
2023-04-26T21:48:05.931Z,10.81
2023-04-26T21:53:07.658Z,10.97
2023-04-26T21:58:09.288Z,10.82
2023-04-26T22:03:11.170Z,10.76
2023-04-26T22:08:12.822Z,10.86
2023-04-26T22:13:14.463Z,10.66
2023-04-26T22:18:16.555Z,10.81
2023-04-26T22:23:18.150Z,10.61
2023-04-26T22:28:19.828Z,10.75
2023-04-26T22:33:21.596Z,10.65
2023-04-26T22:38:24.581Z,10.89
2023-04-26T22:43:26.177Z,10.72
2023-04-26T22:48:27.936Z,10.70
2023-04-26T22:53:29.994Z,10.94
2023-04-26T22:58:32.084Z,10.70
2023-04-26T23:03:36.876Z,10.54
2023-04-26T23:08:38.575Z,10.37
2023-04-26T23:13:40.139Z,10.49
2023-04-26T23:18:44.615Z,10.30
2023-04-26T23:23:46.186Z,10.36
2023-04-26T23:28:47.867Z,10.19
2023-04-26T23:33:49.460Z,10.20
2023-04-26T23:38:51.136Z,10.19
2023-04-26T23:43:52.716Z,10.29
2023-04-26T23:48:54.340Z,10.36
2023-04-26T23:53:55.965Z,10.13
2023-04-26T23:58:58.415Z,10.05
